sensor_id;sensor_type;location;lat;lon;timestamp;pressure;altitude;pressure_sealevel;temperature
68745;BMP180;66104;45.456;11.064;2023-06-14T00:02:18;100069.60;;;22.60
68745;BMP180;66104;45.456;11.064;2023-06-14T00:04:56;100064.20;;;22.60
68745;BMP180;66104;45.456;11.064;2023-06-14T00:07:41;100065.80;;;22.60
68745;BMP180;66104;45.456;11.064;2023-06-14T00:10:19;100063.00;;;22.66
68745;BMP180;66104;45.456;11.064;2023-06-14T00:12:58;100058.20;;;22.70
68745;BMP180;66104;45.456;11.064;2023-06-14T00:15:36;100057.20;;;22.62
68745;BMP180;66104;45.456;11.064;2023-06-14T00:18:14;100056.20;;;22.60
68745;BMP180;66104;45.456;11.064;2023-06-14T00:20:50;100056.40;;;22.60
68745;BMP180;66104;45.456;11.064;2023-06-14T00:23:28;100054.80;;;22.54
68745;BMP180;66104;45.456;11.064;2023-06-14T00:26:04;100053.80;;;22.50
68745;BMP180;66104;45.456;11.064;2023-06-14T00:28:41;100057.40;;;22.40
68745;BMP180;66104;45.456;11.064;2023-06-14T00:31:20;100050.20;;;22.32
68745;BMP180;66104;45.456;11.064;2023-06-14T00:33:57;100049.00;;;22.36
68745;BMP180;66104;45.456;11.064;2023-06-14T00:36:35;100052.80;;;22.40
68745;BMP180;66104;45.456;11.064;2023-06-14T00:39:12;100053.40;;;22.40
68745;BMP180;66104;45.456;11.064;2023-06-14T00:41:49;100055.60;;;22.40
68745;BMP180;66104;45.456;11.064;2023-06-14T00:44:27;100055.60;;;22.40
68745;BMP180;66104;45.456;11.064;2023-06-14T00:47:04;100058.20;;;22.40
68745;BMP180;66104;45.456;11.064;2023-06-14T00:49:42;100054.60;;;22.40
68745;BMP180;66104;45.456;11.064;2023-06-14T00:52:20;100051.80;;;22.40
68745;BMP180;66104;45.456;11.064;2023-06-14T00:54:59;100051.20;;;22.38
68745;BMP180;66104;45.456;11.064;2023-06-14T00:57:37;100051.60;;;22.30
68745;BMP180;66104;45.456;11.064;2023-06-14T01:00:20;100054.60;;;22.30
68745;BMP180;66104;45.456;11.064;2023-06-14T01:03:01;100049.60;;;22.28
68745;BMP180;66104;45.456;11.064;2023-06-14T01:05:44;100055.40;;;22.20
68745;BMP180;66104;45.456;11.064;2023-06-14T01:08:37;100054.40;;;22.20
68745;BMP180;66104;45.456;11.064;2023-06-14T01:11:28;100050.80;;;22.30
68745;BMP180;66104;45.456;11.064;2023-06-14T01:14:08;100047.00;;;22.20
68745;BMP180;66104;45.456;11.064;2023-06-14T01:16:48;100043.80;;;22.20
68745;BMP180;66104;45.456;11.064;2023-06-14T01:19:28;100036.20;;;22.10
68745;BMP180;66104;45.456;11.064;2023-06-14T01:22:08;100036.20;;;22.10
68745;BMP180;66104;45.456;11.064;2023-06-14T01:24:47;100036.80;;;22.08
68745;BMP180;66104;45.456;11.064;2023-06-14T01:27:28;100038.40;;;22.10
68745;BMP180;66104;45.456;11.064;2023-06-14T01:30:12;100036.80;;;22.20
68745;BMP180;66104;45.456;11.064;2023-06-14T01:32:52;100037.80;;;22.20
68745;BMP180;66104;45.456;11.064;2023-06-14T01:35:30;100036.20;;;22.20
68745;BMP180;66104;45.456;11.064;2023-06-14T01:38:11;100039.20;;;22.10
68745;BMP180;66104;45.456;11.064;2023-06-14T01:40:51;100038.40;;;22.14
68745;BMP180;66104;45.456;11.064;2023-06-14T01:43:34;100039.60;;;22.20
68745;BMP180;66104;45.456;11.064;2023-06-14T01:46:15;100039.00;;;22.20
68745;BMP180;66104;45.456;11.064;2023-06-14T01:48:55;100040.20;;;22.20
68745;BMP180;66104;45.456;11.064;2023-06-14T01:51:33;100037.20;;;22.10
68745;BMP180;66104;45.456;11.064;2023-06-14T01:54:11;100035.20;;;22.10
68745;BMP180;66104;45.456;11.064;2023-06-14T01:56:50;100035.00;;;22.00
68745;BMP180;66104;45.456;11.064;2023-06-14T01:59:28;100032.20;;;22.10
68745;BMP180;66104;45.456;11.064;2023-06-14T02:02:09;100028.20;;;22.10
68745;BMP180;66104;45.456;11.064;2023-06-14T02:04:48;100028.60;;;22.00
68745;BMP180;66104;45.456;11.064;2023-06-14T02:07:29;100030.20;;;22.00
68745;BMP180;66104;45.456;11.064;2023-06-14T02:10:11;100030.20;;;22.00
68745;BMP180;66104;45.456;11.064;2023-06-14T02:12:50;100030.20;;;22.00
68745;BMP180;66104;45.456;11.064;2023-06-14T02:15:29;100030.40;;;22.00
68745;BMP180;66104;45.456;11.064;2023-06-14T02:18:11;100029.00;;;22.00
68745;BMP180;66104;45.456;11.064;2023-06-14T02:22:17;100034.40;;;21.90
68745;BMP180;66104;45.456;11.064;2023-06-14T02:24:56;100035.40;;;21.90
68745;BMP180;66104;45.456;11.064;2023-06-14T02:27:35;100039.60;;;21.90
68745;BMP180;66104;45.456;11.064;2023-06-14T02:30:17;100037.40;;;21.80
68745;BMP180;66104;45.456;11.064;2023-06-14T02:32:54;100037.60;;;21.80
68745;BMP180;66104;45.456;11.064;2023-06-14T02:35:31;100037.40;;;21.70
68745;BMP180;66104;45.456;11.064;2023-06-14T02:38:08;100040.80;;;21.70
68745;BMP180;66104;45.456;11.064;2023-06-14T02:40:48;100045.60;;;21.60
68745;BMP180;66104;45.456;11.064;2023-06-14T02:43:26;100044.80;;;21.40
68745;BMP180;66104;45.456;11.064;2023-06-14T02:46:03;100041.40;;;21.40
68745;BMP180;66104;45.456;11.064;2023-06-14T02:48:41;100037.20;;;21.30
68745;BMP180;66104;45.456;11.064;2023-06-14T02:51:18;100032.60;;;21.28
68745;BMP180;66104;45.456;11.064;2023-06-14T02:53:57;100028.40;;;21.20
68745;BMP180;66104;45.456;11.064;2023-06-14T02:56:34;100022.40;;;21.10
68745;BMP180;66104;45.456;11.064;2023-06-14T02:59:12;100018.40;;;21.20
68745;BMP180;66104;45.456;11.064;2023-06-14T03:01:49;100019.40;;;21.18
68745;BMP180;66104;45.456;11.064;2023-06-14T03:04:26;100021.00;;;21.10
68745;BMP180;66104;45.456;11.064;2023-06-14T03:07:04;100016.20;;;21.10
68745;BMP180;66104;45.456;11.064;2023-06-14T03:09:45;100013.80;;;21.10
68745;BMP180;66104;45.456;11.064;2023-06-14T03:12:24;100013.80;;;21.00
68745;BMP180;66104;45.456;11.064;2023-06-14T03:15:01;100013.60;;;21.00
68745;BMP180;66104;45.456;11.064;2023-06-14T03:17:44;100015.80;;;21.00
68745;BMP180;66104;45.456;11.064;2023-06-14T03:20:23;100012.00;;;20.94
68745;BMP180;66104;45.456;11.064;2023-06-14T03:23:08;100014.00;;;20.80
68745;BMP180;66104;45.456;11.064;2023-06-14T03:25:45;100012.60;;;20.80
68745;BMP180;66104;45.456;11.064;2023-06-14T03:28:23;100012.20;;;20.70
68745;BMP180;66104;45.456;11.064;2023-06-14T03:31:00;100012.80;;;20.70
68745;BMP180;66104;45.456;11.064;2023-06-14T03:33:37;100010.40;;;20.60
68745;BMP180;66104;45.456;11.064;2023-06-14T03:36:15;100013.80;;;20.50
68745;BMP180;66104;45.456;11.064;2023-06-14T03:38:53;100012.60;;;20.50
68745;BMP180;66104;45.456;11.064;2023-06-14T03:41:30;100006.80;;;20.60
68745;BMP180;66104;45.456;11.064;2023-06-14T03:44:08;100005.80;;;20.60
68745;BMP180;66104;45.456;11.064;2023-06-14T03:46:45;100008.80;;;20.60
68745;BMP180;66104;45.456;11.064;2023-06-14T03:49:21;100002.40;;;20.60
68745;BMP180;66104;45.456;11.064;2023-06-14T03:52:00;100000.20;;;20.70
68745;BMP180;66104;45.456;11.064;2023-06-14T03:54:38;100000.20;;;20.80
68745;BMP180;66104;45.456;11.064;2023-06-14T03:57:37;100004.00;;;20.80
68745;BMP180;66104;45.456;11.064;2023-06-14T04:00:21;99997.20;;;20.90
68745;BMP180;66104;45.456;11.064;2023-06-14T04:03:01;100000.20;;;20.90
68745;BMP180;66104;45.456;11.064;2023-06-14T04:05:38;100001.00;;;20.82
68745;BMP180;66104;45.456;11.064;2023-06-14T04:08:15;100004.00;;;20.80
68745;BMP180;66104;45.456;11.064;2023-06-14T04:10:54;100005.80;;;20.80
68745;BMP180;66104;45.456;11.064;2023-06-14T04:13:32;100010.60;;;20.90
68745;BMP180;66104;45.456;11.064;2023-06-14T04:16:11;100013.40;;;20.90
68745;BMP180;66104;45.456;11.064;2023-06-14T04:18:49;100022.80;;;21.00
68745;BMP180;66104;45.456;11.064;2023-06-14T04:21:28;100026.20;;;21.10
68745;BMP180;66104;45.456;11.064;2023-06-14T04:24:08;100028.80;;;21.20
68745;BMP180;66104;45.456;11.064;2023-06-14T04:26:54;100025.80;;;21.30
68745;BMP180;66104;45.456;11.064;2023-06-14T04:29:33;100030.60;;;21.34
68745;BMP180;66104;45.456;11.064;2023-06-14T04:32:15;100033.80;;;21.48
68745;BMP180;66104;45.456;11.064;2023-06-14T04:34:53;100031.20;;;21.50
68745;BMP180;66104;45.456;11.064;2023-06-14T04:37:30;100031.20;;;21.60
68745;BMP180;66104;45.456;11.064;2023-06-14T04:40:12;100036.00;;;21.60
68745;BMP180;66104;45.456;11.064;2023-06-14T04:42:53;100036.20;;;21.60
68745;BMP180;66104;45.456;11.064;2023-06-14T04:45:31;100037.20;;;21.60
68745;BMP180;66104;45.456;11.064;2023-06-14T04:48:09;100038.20;;;21.50
68745;BMP180;66104;45.456;11.064;2023-06-14T04:50:46;100042.00;;;21.70
68745;BMP180;66104;45.456;11.064;2023-06-14T04:53:28;100042.60;;;21.80
68745;BMP180;66104;45.456;11.064;2023-06-14T04:56:06;100046.00;;;21.90
68745;BMP180;66104;45.456;11.064;2023-06-14T04:58:42;100045.80;;;22.02
68745;BMP180;66104;45.456;11.064;2023-06-14T05:01:20;100045.60;;;22.10
68745;BMP180;66104;45.456;11.064;2023-06-14T05:03:57;100047.00;;;22.20
68745;BMP180;66104;45.456;11.064;2023-06-14T05:06:34;100042.40;;;22.28
68745;BMP180;66104;45.456;11.064;2023-06-14T05:09:10;100046.20;;;22.30
68745;BMP180;66104;45.456;11.064;2023-06-14T05:11:46;100044.80;;;22.40
68745;BMP180;66104;45.456;11.064;2023-06-14T05:14:24;100042.00;;;22.42
68745;BMP180;66104;45.456;11.064;2023-06-14T05:17:03;100048.80;;;22.50
68745;BMP180;66104;45.456;11.064;2023-06-14T05:19:40;100048.20;;;22.70
68745;BMP180;66104;45.456;11.064;2023-06-14T05:22:17;100055.00;;;22.70
68745;BMP180;66104;45.456;11.064;2023-06-14T05:24:57;100054.00;;;22.72
68745;BMP180;66104;45.456;11.064;2023-06-14T05:27:37;100057.60;;;22.50
68745;BMP180;66104;45.456;11.064;2023-06-14T05:30:20;100059.00;;;22.40
68745;BMP180;66104;45.456;11.064;2023-06-14T05:32:56;100061.40;;;22.50
68745;BMP180;66104;45.456;11.064;2023-06-14T05:35:32;100068.00;;;22.60
68745;BMP180;66104;45.456;11.064;2023-06-14T05:38:10;100067.40;;;22.70
68745;BMP180;66104;45.456;11.064;2023-06-14T05:40:48;100066.60;;;22.80
68745;BMP180;66104;45.456;11.064;2023-06-14T05:43:25;100071.20;;;22.90
68745;BMP180;66104;45.456;11.064;2023-06-14T05:46:02;100071.20;;;22.90
68745;BMP180;66104;45.456;11.064;2023-06-14T05:48:40;100076.00;;;23.00
68745;BMP180;66104;45.456;11.064;2023-06-14T05:51:18;100073.60;;;23.00
68745;BMP180;66104;45.456;11.064;2023-06-14T05:53:56;100076.40;;;23.10
68745;BMP180;66104;45.456;11.064;2023-06-14T05:56:33;100077.80;;;23.10
68745;BMP180;66104;45.456;11.064;2023-06-14T05:59:11;100082.20;;;23.20
68745;BMP180;66104;45.456;11.064;2023-06-14T06:01:47;100085.60;;;23.20
68745;BMP180;66104;45.456;11.064;2023-06-14T06:04:24;100087.20;;;23.20
68745;BMP180;66104;45.456;11.064;2023-06-14T06:07:02;100091.40;;;23.20
68745;BMP180;66104;45.456;11.064;2023-06-14T06:09:39;100092.20;;;23.26
68745;BMP180;66104;45.456;11.064;2023-06-14T06:12:17;100095.60;;;23.28
68745;BMP180;66104;45.456;11.064;2023-06-14T06:14:53;100098.20;;;23.30
68745;BMP180;66104;45.456;11.064;2023-06-14T06:17:32;100101.80;;;23.24
68745;BMP180;66104;45.456;11.064;2023-06-14T06:20:40;100097.20;;;23.20
68745;BMP180;66104;45.456;11.064;2023-06-14T06:23:19;100097.00;;;23.10
68745;BMP180;66104;45.456;11.064;2023-06-14T06:25:56;100097.20;;;23.00
68745;BMP180;66104;45.456;11.064;2023-06-14T06:28:33;100102.20;;;22.90
68745;BMP180;66104;45.456;11.064;2023-06-14T06:31:10;100102.60;;;22.70
68745;BMP180;66104;45.456;11.064;2023-06-14T06:33:51;100105.40;;;22.60
68745;BMP180;66104;45.456;11.064;2023-06-14T06:36:28;100105.40;;;22.50
68745;BMP180;66104;45.456;11.064;2023-06-14T06:39:06;100108.20;;;22.48
68745;BMP180;66104;45.456;11.064;2023-06-14T06:41:44;100108.60;;;22.40
68745;BMP180;66104;45.456;11.064;2023-06-14T06:44:31;100109.80;;;22.40
68745;BMP180;66104;45.456;11.064;2023-06-14T06:47:10;100108.60;;;22.40
68745;BMP180;66104;45.456;11.064;2023-06-14T06:49:50;100109.40;;;22.50
68745;BMP180;66104;45.456;11.064;2023-06-14T06:52:27;100112.60;;;22.52
68745;BMP180;66104;45.456;11.064;2023-06-14T06:55:07;100113.80;;;22.60
68745;BMP180;66104;45.456;11.064;2023-06-14T06:57:45;100119.00;;;22.68
68745;BMP180;66104;45.456;11.064;2023-06-14T07:00:25;100116.60;;;22.70
68745;BMP180;66104;45.456;11.064;2023-06-14T07:03:04;100121.00;;;22.70
68745;BMP180;66104;45.456;11.064;2023-06-14T07:05:42;100123.80;;;22.80
68745;BMP180;66104;45.456;11.064;2023-06-14T07:08:18;100123.60;;;22.80
68745;BMP180;66104;45.456;11.064;2023-06-14T07:10:55;100117.20;;;22.90
68745;BMP180;66104;45.456;11.064;2023-06-14T07:13:32;100118.60;;;22.90
68745;BMP180;66104;45.456;11.064;2023-06-14T07:16:11;100122.60;;;23.00
68745;BMP180;66104;45.456;11.064;2023-06-14T07:18:47;100117.60;;;23.08
68745;BMP180;66104;45.456;11.064;2023-06-14T07:21:25;100116.80;;;23.10
68745;BMP180;66104;45.456;11.064;2023-06-14T07:24:02;100120.60;;;23.16
68745;BMP180;66104;45.456;11.064;2023-06-14T07:26:42;100122.40;;;23.20
68745;BMP180;66104;45.456;11.064;2023-06-14T07:29:19;100125.60;;;23.30
68745;BMP180;66104;45.456;11.064;2023-06-14T07:31:57;100131.20;;;23.40
68745;BMP180;66104;45.456;11.064;2023-06-14T07:34:33;100126.20;;;23.50
68745;BMP180;66104;45.456;11.064;2023-06-14T07:37:11;100130.60;;;23.50
68745;BMP180;66104;45.456;11.064;2023-06-14T07:39:48;100132.80;;;23.60
68745;BMP180;66104;45.456;11.064;2023-06-14T07:42:25;100133.00;;;23.70
68745;BMP180;66104;45.456;11.064;2023-06-14T07:45:03;100138.00;;;23.70
68745;BMP180;66104;45.456;11.064;2023-06-14T07:47:41;100144.20;;;23.76
68745;BMP180;66104;45.456;11.064;2023-06-14T07:50:17;100135.80;;;23.80
68745;BMP180;66104;45.456;11.064;2023-06-14T07:52:56;100129.40;;;23.80
68745;BMP180;66104;45.456;11.064;2023-06-14T07:55:33;100131.40;;;23.90
68745;BMP180;66104;45.456;11.064;2023-06-14T07:58:26;100130.40;;;23.92
68745;BMP180;66104;45.456;11.064;2023-06-14T08:01:05;100129.80;;;24.00
68745;BMP180;66104;45.456;11.064;2023-06-14T08:03:43;100129.80;;;24.00
68745;BMP180;66104;45.456;11.064;2023-06-14T08:06:20;100128.00;;;24.00
68745;BMP180;66104;45.456;11.064;2023-06-14T08:08:58;100129.80;;;24.08
68745;BMP180;66104;45.456;11.064;2023-06-14T08:11:35;100133.20;;;24.06
68745;BMP180;66104;45.456;11.064;2023-06-14T08:14:12;100131.80;;;24.00
68745;BMP180;66104;45.456;11.064;2023-06-14T08:16:51;100130.80;;;23.90
68745;BMP180;66104;45.456;11.064;2023-06-14T08:19:28;100134.20;;;24.00
68745;BMP180;66104;45.456;11.064;2023-06-14T08:22:07;100133.00;;;24.00
68745;BMP180;66104;45.456;11.064;2023-06-14T08:24:49;100133.40;;;24.10
68745;BMP180;66104;45.456;11.064;2023-06-14T08:27:27;100135.20;;;24.10
68745;BMP180;66104;45.456;11.064;2023-06-14T08:30:08;100136.40;;;24.20
68745;BMP180;66104;45.456;11.064;2023-06-14T08:32:46;100139.20;;;24.20
68745;BMP180;66104;45.456;11.064;2023-06-14T08:35:36;100143.20;;;24.20
68745;BMP180;66104;45.456;11.064;2023-06-14T08:38:16;100142.80;;;24.10
68745;BMP180;66104;45.456;11.064;2023-06-14T08:40:58;100145.80;;;24.20
68745;BMP180;66104;45.456;11.064;2023-06-14T08:43:41;100148.00;;;24.10
68745;BMP180;66104;45.456;11.064;2023-06-14T08:46:20;100148.20;;;24.10
68745;BMP180;66104;45.456;11.064;2023-06-14T08:49:00;100149.00;;;24.10
68745;BMP180;66104;45.456;11.064;2023-06-14T08:51:40;100149.40;;;24.16
68745;BMP180;66104;45.456;11.064;2023-06-14T08:54:19;100151.00;;;24.20
68745;BMP180;66104;45.456;11.064;2023-06-14T08:56:58;100151.40;;;24.30
68745;BMP180;66104;45.456;11.064;2023-06-14T08:59:36;100157.80;;;24.30
68745;BMP180;66104;45.456;11.064;2023-06-14T09:02:14;100159.20;;;24.30
68745;BMP180;66104;45.456;11.064;2023-06-14T09:04:52;100163.80;;;24.40
68745;BMP180;66104;45.456;11.064;2023-06-14T09:07:34;100164.20;;;24.40
68745;BMP180;66104;45.456;11.064;2023-06-14T09:10:15;100163.40;;;24.42
68745;BMP180;66104;45.456;11.064;2023-06-14T09:12:54;100165.60;;;24.50
68745;BMP180;66104;45.456;11.064;2023-06-14T09:15:34;100164.00;;;24.50
68745;BMP180;66104;45.456;11.064;2023-06-14T09:18:11;100166.00;;;24.50
68745;BMP180;66104;45.456;11.064;2023-06-14T09:20:49;100170.20;;;24.50
68745;BMP180;66104;45.456;11.064;2023-06-14T09:23:26;100168.40;;;24.52
68745;BMP180;66104;45.456;11.064;2023-06-14T09:26:04;100167.40;;;24.58
68745;BMP180;66104;45.456;11.064;2023-06-14T09:28:47;100164.20;;;24.60
68745;BMP180;66104;45.456;11.064;2023-06-14T09:31:25;100165.40;;;24.60
68745;BMP180;66104;45.456;11.064;2023-06-14T09:34:09;100166.60;;;24.60
68745;BMP180;66104;45.456;11.064;2023-06-14T09:36:47;100171.60;;;24.60
68745;BMP180;66104;45.456;11.064;2023-06-14T09:39:28;100170.80;;;24.60
68745;BMP180;66104;45.456;11.064;2023-06-14T09:42:18;100173.20;;;24.60
68745;BMP180;66104;45.456;11.064;2023-06-14T09:44:56;100177.20;;;24.60
68745;BMP180;66104;45.456;11.064;2023-06-14T09:47:33;100177.80;;;24.50
68745;BMP180;66104;45.456;11.064;2023-06-14T09:50:17;100177.80;;;24.50
68745;BMP180;66104;45.456;11.064;2023-06-14T09:53:03;100177.20;;;24.40
68745;BMP180;66104;45.456;11.064;2023-06-14T09:55:42;100175.80;;;24.40
68745;BMP180;66104;45.456;11.064;2023-06-14T09:58:22;100176.40;;;24.40
68745;BMP180;66104;45.456;11.064;2023-06-14T10:01:02;100176.00;;;24.40
68745;BMP180;66104;45.456;11.064;2023-06-14T10:03:40;100179.40;;;24.40
68745;BMP180;66104;45.456;11.064;2023-06-14T10:06:24;100180.40;;;24.40
68745;BMP180;66104;45.456;11.064;2023-06-14T10:09:02;100175.20;;;24.40
68745;BMP180;66104;45.456;11.064;2023-06-14T10:11:40;100176.40;;;24.30
68745;BMP180;66104;45.456;11.064;2023-06-14T10:14:19;100173.20;;;24.30
68745;BMP180;66104;45.456;11.064;2023-06-14T10:17:06;100172.60;;;24.30
68745;BMP180;66104;45.456;11.064;2023-06-14T10:19:54;100169.20;;;24.30
68745;BMP180;66104;45.456;11.064;2023-06-14T10:22:38;100161.20;;;24.30
68745;BMP180;66104;45.456;11.064;2023-06-14T10:25:30;100162.20;;;24.40
68745;BMP180;66104;45.456;11.064;2023-06-14T10:28:25;100159.20;;;24.50
68745;BMP180;66104;45.456;11.064;2023-06-14T10:31:11;100158.80;;;24.50
68745;BMP180;66104;45.456;11.064;2023-06-14T10:33:59;100161.80;;;24.60
68745;BMP180;66104;45.456;11.064;2023-06-14T10:36:40;100161.60;;;24.60
68745;BMP180;66104;45.456;11.064;2023-06-14T10:39:24;100158.20;;;24.70
68745;BMP180;66104;45.456;11.064;2023-06-14T10:42:03;100154.40;;;24.70
68745;BMP180;66104;45.456;11.064;2023-06-14T10:44:55;100149.80;;;24.80
68745;BMP180;66104;45.456;11.064;2023-06-14T10:47:35;100151.40;;;24.80
68745;BMP180;66104;45.456;11.064;2023-06-14T10:50:16;100153.00;;;24.80
68745;BMP180;66104;45.456;11.064;2023-06-14T10:52:54;100155.00;;;24.90
68745;BMP180;66104;45.456;11.064;2023-06-14T10:55:41;100150.00;;;24.92
68745;BMP180;66104;45.456;11.064;2023-06-14T10:58:21;100149.40;;;25.00
68745;BMP180;66104;45.456;11.064;2023-06-14T11:01:01;100148.20;;;25.00
68745;BMP180;66104;45.456;11.064;2023-06-14T11:04:00;100145.80;;;25.10
68745;BMP180;66104;45.456;11.064;2023-06-14T11:06:51;100148.80;;;25.00
68745;BMP180;66104;45.456;11.064;2023-06-14T11:09:55;100145.40;;;25.00
68745;BMP180;66104;45.456;11.064;2023-06-14T11:12:42;100142.20;;;25.00
68745;BMP180;66104;45.456;11.064;2023-06-14T11:15:23;100137.40;;;25.10
68745;BMP180;66104;45.456;11.064;2023-06-14T11:18:06;100136.60;;;25.10
68745;BMP180;66104;45.456;11.064;2023-06-14T11:20:46;100135.20;;;25.20
68745;BMP180;66104;45.456;11.064;2023-06-14T11:23:23;100129.00;;;25.24
68745;BMP180;66104;45.456;11.064;2023-06-14T11:26:01;100130.80;;;25.30
68745;BMP180;66104;45.456;11.064;2023-06-14T11:28:57;100127.40;;;25.30
68745;BMP180;66104;45.456;11.064;2023-06-14T11:31:34;100122.60;;;25.40
68745;BMP180;66104;45.456;11.064;2023-06-14T11:34:11;100122.00;;;25.40
68745;BMP180;66104;45.456;11.064;2023-06-14T11:36:51;100114.40;;;25.50
68745;BMP180;66104;45.456;11.064;2023-06-14T11:39:30;100114.80;;;25.50
68745;BMP180;66104;45.456;11.064;2023-06-14T11:42:14;100113.80;;;25.40
68745;BMP180;66104;45.456;11.064;2023-06-14T11:44:53;100111.20;;;25.40
68745;BMP180;66104;45.456;11.064;2023-06-14T11:47:43;100103.40;;;25.40
68745;BMP180;66104;45.456;11.064;2023-06-14T11:50:22;100095.80;;;25.40
68745;BMP180;66104;45.456;11.064;2023-06-14T11:53:01;100100.00;;;25.48
68745;BMP180;66104;45.456;11.064;2023-06-14T11:55:43;100097.60;;;25.54
68745;BMP180;66104;45.456;11.064;2023-06-14T11:58:23;100099.60;;;25.70
68745;BMP180;66104;45.456;11.064;2023-06-14T12:01:01;100098.00;;;25.90
68745;BMP180;66104;45.456;11.064;2023-06-14T12:03:49;100090.40;;;26.00
68745;BMP180;66104;45.456;11.064;2023-06-14T12:06:33;100093.00;;;26.00
68745;BMP180;66104;45.456;11.064;2023-06-14T12:09:12;100088.80;;;25.90
68745;BMP180;66104;45.456;11.064;2023-06-14T12:11:52;100081.80;;;25.90
68745;BMP180;66104;45.456;11.064;2023-06-14T12:14:39;100081.60;;;25.92
68745;BMP180;66104;45.456;11.064;2023-06-14T12:17:22;100078.00;;;26.00
68745;BMP180;66104;45.456;11.064;2023-06-14T12:19:59;100074.60;;;26.00
68745;BMP180;66104;45.456;11.064;2023-06-14T12:22:36;100071.80;;;26.00
68745;BMP180;66104;45.456;11.064;2023-06-14T12:25:29;100064.60;;;26.10
68745;BMP180;66104;45.456;11.064;2023-06-14T12:28:10;100062.60;;;26.16
68745;BMP180;66104;45.456;11.064;2023-06-14T12:30:49;100060.20;;;26.28
68745;BMP180;66104;45.456;11.064;2023-06-14T12:33:29;100058.00;;;26.30
68745;BMP180;66104;45.456;11.064;2023-06-14T12:36:13;100060.80;;;26.40
68745;BMP180;66104;45.456;11.064;2023-06-14T12:38:50;100054.00;;;26.40
68745;BMP180;66104;45.456;11.064;2023-06-14T12:41:28;100052.40;;;26.50
68745;BMP180;66104;45.456;11.064;2023-06-14T12:44:08;100049.80;;;26.60
68745;BMP180;66104;45.456;11.064;2023-06-14T12:46:45;100057.80;;;26.70
68745;BMP180;66104;45.456;11.064;2023-06-14T12:49:26;100060.60;;;26.60
68745;BMP180;66104;45.456;11.064;2023-06-14T12:52:05;100057.80;;;26.40
68745;BMP180;66104;45.456;11.064;2023-06-14T12:54:44;100057.20;;;26.40
68745;BMP180;66104;45.456;11.064;2023-06-14T12:57:22;100049.80;;;26.40
68745;BMP180;66104;45.456;11.064;2023-06-14T13:00:01;100045.00;;;26.60
68745;BMP180;66104;45.456;11.064;2023-06-14T13:02:39;100049.40;;;26.60
68745;BMP180;66104;45.456;11.064;2023-06-14T13:05:18;100049.20;;;26.70
68745;BMP180;66104;45.456;11.064;2023-06-14T13:07:58;100042.60;;;26.80
68745;BMP180;66104;45.456;11.064;2023-06-14T13:10:36;100046.40;;;27.00
68745;BMP180;66104;45.456;11.064;2023-06-14T13:13:13;100039.40;;;27.10
68745;BMP180;66104;45.456;11.064;2023-06-14T13:15:51;100037.40;;;27.16
68745;BMP180;66104;45.456;11.064;2023-06-14T13:18:28;100035.00;;;27.12
68745;BMP180;66104;45.456;11.064;2023-06-14T13:21:06;100033.60;;;27.16
68745;BMP180;66104;45.456;11.064;2023-06-14T13:23:45;100035.00;;;27.10
68745;BMP180;66104;45.456;11.064;2023-06-14T13:26:23;100033.80;;;27.20
68745;BMP180;66104;45.456;11.064;2023-06-14T13:29:02;100033.60;;;27.20
68745;BMP180;66104;45.456;11.064;2023-06-14T13:31:41;100035.60;;;27.20
68745;BMP180;66104;45.456;11.064;2023-06-14T13:34:19;100039.60;;;27.20
68745;BMP180;66104;45.456;11.064;2023-06-14T13:36:59;100032.80;;;27.20
68745;BMP180;66104;45.456;11.064;2023-06-14T13:39:36;100029.60;;;27.20
68745;BMP180;66104;45.456;11.064;2023-06-14T13:42:14;100024.60;;;27.20
68745;BMP180;66104;45.456;11.064;2023-06-14T13:44:52;100023.40;;;27.20
68745;BMP180;66104;45.456;11.064;2023-06-14T13:47:29;100020.60;;;27.10
68745;BMP180;66104;45.456;11.064;2023-06-14T13:50:11;100019.80;;;27.10
68745;BMP180;66104;45.456;11.064;2023-06-14T13:52:49;100021.40;;;27.10
68745;BMP180;66104;45.456;11.064;2023-06-14T13:55:27;100026.20;;;27.10
68745;BMP180;66104;45.456;11.064;2023-06-14T13:58:05;100019.80;;;27.16
68745;BMP180;66104;45.456;11.064;2023-06-14T14:00:43;100021.60;;;27.30
68745;BMP180;66104;45.456;11.064;2023-06-14T14:03:22;100016.00;;;27.40
68745;BMP180;66104;45.456;11.064;2023-06-14T14:06:01;100016.80;;;27.46
68745;BMP180;66104;45.456;11.064;2023-06-14T14:08:39;100014.40;;;27.40
68745;BMP180;66104;45.456;11.064;2023-06-14T14:11:17;100014.00;;;27.30
68745;BMP180;66104;45.456;11.064;2023-06-14T14:13:55;100018.80;;;27.30
68745;BMP180;66104;45.456;11.064;2023-06-14T14:16:32;100014.80;;;27.40
68745;BMP180;66104;45.456;11.064;2023-06-14T14:19:10;100018.00;;;27.40
68745;BMP180;66104;45.456;11.064;2023-06-14T14:21:48;100015.20;;;27.50
68745;BMP180;66104;45.456;11.064;2023-06-14T14:24:28;100016.00;;;27.60
68745;BMP180;66104;45.456;11.064;2023-06-14T14:27:08;100015.00;;;27.70
68745;BMP180;66104;45.456;11.064;2023-06-14T14:29:46;100014.40;;;27.80
68745;BMP180;66104;45.456;11.064;2023-06-14T14:32:23;100012.80;;;27.80
68745;BMP180;66104;45.456;11.064;2023-06-14T14:35:01;100018.60;;;27.70
68745;BMP180;66104;45.456;11.064;2023-06-14T14:37:38;100014.20;;;27.60
68745;BMP180;66104;45.456;11.064;2023-06-14T14:40:18;100010.80;;;27.60
68745;BMP180;66104;45.456;11.064;2023-06-14T14:42:56;100012.20;;;27.60
68745;BMP180;66104;45.456;11.064;2023-06-14T14:45:35;100012.00;;;27.60
68745;BMP180;66104;45.456;11.064;2023-06-14T14:48:13;100010.80;;;27.60
68745;BMP180;66104;45.456;11.064;2023-06-14T14:50:54;100005.60;;;27.50
68745;BMP180;66104;45.456;11.064;2023-06-14T14:53:32;100001.40;;;27.50
68745;BMP180;66104;45.456;11.064;2023-06-14T14:56:12;100000.20;;;27.50